sensor_id;sensor_type;location;lat;lon;timestamp;P1;durP1;ratioP1;P2;durP2;ratioP2
1320;SDS011;653;51.480;11.992;2023-05-10T00:00:59;16.60;;;6.07;;
1320;SDS011;653;51.480;11.992;2023-05-10T00:03:24;6.60;;;5.60;;
1320;SDS011;653;51.480;11.992;2023-05-10T00:05:50;7.03;;;5.80;;
1320;SDS011;653;51.480;11.992;2023-05-10T00:08:19;5.50;;;5.00;;
1320;SDS011;653;51.480;11.992;2023-05-10T00:10:44;8.63;;;6.50;;
1320;SDS011;653;51.480;11.992;2023-05-10T00:13:10;8.00;;;6.93;;
1320;SDS011;653;51.480;11.992;2023-05-10T00:15:38;7.33;;;6.40;;
1320;SDS011;653;51.480;11.992;2023-05-10T00:18:03;6.50;;;5.57;;
1320;SDS011;653;51.480;11.992;2023-05-10T00:20:29;7.40;;;6.30;;
1320;SDS011;653;51.480;11.992;2023-05-10T00:22:54;7.17;;;6.47;;
1320;SDS011;653;51.480;11.992;2023-05-10T00:25:23;7.43;;;6.50;;
1320;SDS011;653;51.480;11.992;2023-05-10T00:27:50;7.37;;;6.40;;
1320;SDS011;653;51.480;11.992;2023-05-10T00:30:16;9.60;;;6.10;;
1320;SDS011;653;51.480;11.992;2023-05-10T00:32:42;8.70;;;6.63;;
1320;SDS011;653;51.480;11.992;2023-05-10T00:35:08;8.17;;;5.67;;
1320;SDS011;653;51.480;11.992;2023-05-10T00:37:39;8.53;;;6.53;;
1320;SDS011;653;51.480;11.992;2023-05-10T00:40:05;8.27;;;6.10;;
1320;SDS011;653;51.480;11.992;2023-05-10T00:42:32;6.40;;;5.57;;
1320;SDS011;653;51.480;11.992;2023-05-10T00:45:00;9.17;;;6.60;;
1320;SDS011;653;51.480;11.992;2023-05-10T00:47:27;6.80;;;5.87;;
1320;SDS011;653;51.480;11.992;2023-05-10T00:49:57;6.63;;;5.93;;
1320;SDS011;653;51.480;11.992;2023-05-10T00:52:23;8.57;;;6.00;;
1320;SDS011;653;51.480;11.992;2023-05-10T00:54:57;10.63;;;6.90;;
1320;SDS011;653;51.480;11.992;2023-05-10T00:57:25;6.80;;;6.20;;
1320;SDS011;653;51.480;11.992;2023-05-10T00:59:53;8.33;;;6.33;;
1320;SDS011;653;51.480;11.992;2023-05-10T01:02:20;6.73;;;6.10;;
1320;SDS011;653;51.480;11.992;2023-05-10T01:04:45;8.40;;;6.63;;
1320;SDS011;653;51.480;11.992;2023-05-10T01:07:12;6.90;;;6.30;;
1320;SDS011;653;51.480;11.992;2023-05-10T01:09:38;7.73;;;6.93;;
1320;SDS011;653;51.480;11.992;2023-05-10T01:12:05;8.60;;;7.17;;
1320;SDS011;653;51.480;11.992;2023-05-10T01:14:33;12.07;;;7.30;;
1320;SDS011;653;51.480;11.992;2023-05-10T01:17:03;7.83;;;7.03;;
1320;SDS011;653;51.480;11.992;2023-05-10T01:19:30;7.97;;;5.90;;
1320;SDS011;653;51.480;11.992;2023-05-10T01:30:55;7.60;;;6.90;;
1320;SDS011;653;51.480;11.992;2023-05-10T01:33:35;6.97;;;6.30;;
1320;SDS011;653;51.480;11.992;2023-05-10T01:36:07;7.40;;;6.03;;
1320;SDS011;653;51.480;11.992;2023-05-10T01:38:51;7.33;;;6.33;;
1320;SDS011;653;51.480;11.992;2023-05-10T01:50:20;8.80;;;6.60;;
1320;SDS011;653;51.480;11.992;2023-05-10T01:52:51;7.00;;;6.23;;
1320;SDS011;653;51.480;11.992;2023-05-10T01:55:20;7.73;;;6.90;;
1320;SDS011;653;51.480;11.992;2023-05-10T01:57:50;11.10;;;6.90;;
1320;SDS011;653;51.480;11.992;2023-05-10T02:00:19;8.57;;;7.50;;
1320;SDS011;653;51.480;11.992;2023-05-10T02:02:45;9.13;;;7.10;;
1320;SDS011;653;51.480;11.992;2023-05-10T02:05:15;8.00;;;6.80;;
1320;SDS011;653;51.480;11.992;2023-05-10T02:07:42;9.07;;;7.33;;
1320;SDS011;653;51.480;11.992;2023-05-10T02:10:09;7.77;;;6.13;;
1320;SDS011;653;51.480;11.992;2023-05-10T02:12:40;8.33;;;6.63;;
1320;SDS011;653;51.480;11.992;2023-05-10T02:15:12;7.93;;;7.10;;
1320;SDS011;653;51.480;11.992;2023-05-10T02:17:42;8.80;;;7.10;;
1320;SDS011;653;51.480;11.992;2023-05-10T02:20:08;7.90;;;6.80;;
1320;SDS011;653;51.480;11.992;2023-05-10T02:22:36;10.70;;;7.60;;
1320;SDS011;653;51.480;11.992;2023-05-10T02:25:04;9.63;;;7.17;;
1320;SDS011;653;51.480;11.992;2023-05-10T02:27:30;10.40;;;6.43;;
1320;SDS011;653;51.480;11.992;2023-05-10T02:29:55;7.93;;;7.20;;
1320;SDS011;653;51.480;11.992;2023-05-10T02:32:22;9.27;;;7.27;;
1320;SDS011;653;51.480;11.992;2023-05-10T02:34:48;10.50;;;6.70;;
1320;SDS011;653;51.480;11.992;2023-05-10T02:37:20;8.00;;;6.50;;
1320;SDS011;653;51.480;11.992;2023-05-10T02:39:49;8.23;;;7.20;;
1320;SDS011;653;51.480;11.992;2023-05-10T02:42:18;8.17;;;6.93;;
1320;SDS011;653;51.480;11.992;2023-05-10T02:44:48;8.90;;;7.53;;
1320;SDS011;653;51.480;11.992;2023-05-10T02:47:18;9.13;;;7.20;;
1320;SDS011;653;51.480;11.992;2023-05-10T02:49:44;8.50;;;6.77;;
1320;SDS011;653;51.480;11.992;2023-05-10T02:52:13;11.93;;;6.93;;
1320;SDS011;653;51.480;11.992;2023-05-10T02:54:46;9.17;;;6.60;;
1320;SDS011;653;51.480;11.992;2023-05-10T02:57:16;7.97;;;7.03;;
1320;SDS011;653;51.480;11.992;2023-05-10T02:59:46;8.67;;;7.40;;
1320;SDS011;653;51.480;11.992;2023-05-10T03:02:19;9.57;;;6.70;;
1320;SDS011;653;51.480;11.992;2023-05-10T03:04:49;8.70;;;6.20;;
1320;SDS011;653;51.480;11.992;2023-05-10T03:07:16;9.57;;;7.53;;
1320;SDS011;653;51.480;11.992;2023-05-10T03:09:47;8.03;;;6.77;;
1320;SDS011;653;51.480;11.992;2023-05-10T03:12:17;9.47;;;7.33;;
1320;SDS011;653;51.480;11.992;2023-05-10T03:17:56;9.70;;;7.20;;
1320;SDS011;653;51.480;11.992;2023-05-10T03:20:35;10.20;;;7.20;;
1320;SDS011;653;51.480;11.992;2023-05-10T03:26:07;8.87;;;6.87;;
1320;SDS011;653;51.480;11.992;2023-05-10T03:28:35;10.37;;;8.17;;
1320;SDS011;653;51.480;11.992;2023-05-10T03:31:00;8.30;;;7.37;;
1320;SDS011;653;51.480;11.992;2023-05-10T03:33:29;8.60;;;6.77;;
1320;SDS011;653;51.480;11.992;2023-05-10T03:35:55;8.47;;;7.53;;
1320;SDS011;653;51.480;11.992;2023-05-10T03:38:23;9.07;;;8.17;;
1320;SDS011;653;51.480;11.992;2023-05-10T03:40:50;8.43;;;7.60;;
1320;SDS011;653;51.480;11.992;2023-05-10T03:43:16;9.57;;;7.80;;
1320;SDS011;653;51.480;11.992;2023-05-10T03:45:41;8.33;;;7.20;;
1320;SDS011;653;51.480;11.992;2023-05-10T03:48:08;9.87;;;7.30;;
1320;SDS011;653;51.480;11.992;2023-05-10T03:50:33;8.50;;;7.30;;
1320;SDS011;653;51.480;11.992;2023-05-10T03:53:00;8.60;;;6.50;;
1320;SDS011;653;51.480;11.992;2023-05-10T03:55:26;6.97;;;6.17;;
1320;SDS011;653;51.480;11.992;2023-05-10T03:57:52;7.23;;;6.53;;
1320;SDS011;653;51.480;11.992;2023-05-10T04:00:23;10.47;;;6.87;;
1320;SDS011;653;51.480;11.992;2023-05-10T04:02:50;7.70;;;6.37;;
1320;SDS011;653;51.480;11.992;2023-05-10T04:05:22;13.53;;;7.30;;
1320;SDS011;653;51.480;11.992;2023-05-10T04:07:48;13.70;;;7.40;;
1320;SDS011;653;51.480;11.992;2023-05-10T04:10:17;7.07;;;6.20;;
1320;SDS011;653;51.480;11.992;2023-05-10T04:13:03;8.00;;;6.93;;
1320;SDS011;653;51.480;11.992;2023-05-10T04:15:32;12.13;;;7.30;;
1320;SDS011;653;51.480;11.992;2023-05-10T04:18:01;9.67;;;8.00;;
1320;SDS011;653;51.480;11.992;2023-05-10T04:20:29;9.57;;;6.83;;
1320;SDS011;653;51.480;11.992;2023-05-10T04:22:56;10.90;;;8.07;;
1320;SDS011;653;51.480;11.992;2023-05-10T04:25:24;8.57;;;7.07;;
1320;SDS011;653;51.480;11.992;2023-05-10T04:27:51;9.83;;;6.30;;
1320;SDS011;653;51.480;11.992;2023-05-10T04:30:17;8.53;;;6.80;;
1320;SDS011;653;51.480;11.992;2023-05-10T04:32:47;7.97;;;6.93;;
1320;SDS011;653;51.480;11.992;2023-05-10T04:35:13;7.17;;;6.47;;
1320;SDS011;653;51.480;11.992;2023-05-10T04:37:40;8.43;;;6.83;;
1320;SDS011;653;51.480;11.992;2023-05-10T04:40:06;11.23;;;7.23;;
1320;SDS011;653;51.480;11.992;2023-05-10T04:42:32;9.23;;;6.57;;
1320;SDS011;653;51.480;11.992;2023-05-10T04:44:57;7.33;;;6.53;;
1320;SDS011;653;51.480;11.992;2023-05-10T04:47:28;7.63;;;6.60;;
1320;SDS011;653;51.480;11.992;2023-05-10T04:49:57;8.80;;;6.60;;
1320;SDS011;653;51.480;11.992;2023-05-10T04:52:25;8.70;;;7.10;;
1320;SDS011;653;51.480;11.992;2023-05-10T04:54:51;6.70;;;6.00;;
1320;SDS011;653;51.480;11.992;2023-05-10T04:57:22;7.33;;;6.50;;
1320;SDS011;653;51.480;11.992;2023-05-10T04:59:47;7.90;;;7.00;;
1320;SDS011;653;51.480;11.992;2023-05-10T05:02:13;7.50;;;6.07;;
1320;SDS011;653;51.480;11.992;2023-05-10T05:04:41;11.73;;;6.77;;
1320;SDS011;653;51.480;11.992;2023-05-10T05:07:07;8.50;;;6.23;;
1320;SDS011;653;51.480;11.992;2023-05-10T05:09:32;8.60;;;6.50;;
1320;SDS011;653;51.480;11.992;2023-05-10T05:11:59;6.87;;;5.90;;
1320;SDS011;653;51.480;11.992;2023-05-10T05:14:26;6.53;;;5.87;;
1320;SDS011;653;51.480;11.992;2023-05-10T05:16:52;8.53;;;6.50;;
1320;SDS011;653;51.480;11.992;2023-05-10T05:19:19;7.30;;;6.40;;
1320;SDS011;653;51.480;11.992;2023-05-10T05:21:49;7.90;;;5.77;;
1320;SDS011;653;51.480;11.992;2023-05-10T05:24:16;6.13;;;5.13;;
1320;SDS011;653;51.480;11.992;2023-05-10T05:26:42;7.67;;;6.87;;
1320;SDS011;653;51.480;11.992;2023-05-10T05:29:09;7.63;;;6.10;;
1320;SDS011;653;51.480;11.992;2023-05-10T05:31:36;6.90;;;6.20;;
1320;SDS011;653;51.480;11.992;2023-05-10T05:34:03;7.27;;;6.13;;
1320;SDS011;653;51.480;11.992;2023-05-10T05:36:32;10.20;;;7.10;;
1320;SDS011;653;51.480;11.992;2023-05-10T05:38:59;7.97;;;6.30;;
1320;SDS011;653;51.480;11.992;2023-05-10T05:41:24;7.63;;;6.30;;
1320;SDS011;653;51.480;11.992;2023-05-10T05:43:50;8.40;;;6.67;;
1320;SDS011;653;51.480;11.992;2023-05-10T05:46:16;7.50;;;5.60;;
1320;SDS011;653;51.480;11.992;2023-05-10T05:48:43;8.13;;;5.93;;
1320;SDS011;653;51.480;11.992;2023-05-10T05:51:10;7.70;;;5.50;;
1320;SDS011;653;51.480;11.992;2023-05-10T05:53:38;6.90;;;6.00;;
1320;SDS011;653;51.480;11.992;2023-05-10T05:56:04;9.27;;;5.93;;
1320;SDS011;653;51.480;11.992;2023-05-10T05:58:29;9.10;;;5.67;;
1320;SDS011;653;51.480;11.992;2023-05-10T06:00:55;7.10;;;5.60;;
1320;SDS011;653;51.480;11.992;2023-05-10T06:03:20;7.27;;;6.07;;
1320;SDS011;653;51.480;11.992;2023-05-10T06:05:47;16.90;;;6.00;;
1320;SDS011;653;51.480;11.992;2023-05-10T06:08:13;6.40;;;5.50;;
1320;SDS011;653;51.480;11.992;2023-05-10T06:10:39;6.20;;;5.60;;
1320;SDS011;653;51.480;11.992;2023-05-10T06:13:07;7.33;;;5.30;;
1320;SDS011;653;51.480;11.992;2023-05-10T06:15:34;11.40;;;5.73;;
1320;SDS011;653;51.480;11.992;2023-05-10T06:18:02;8.60;;;6.03;;
1320;SDS011;653;51.480;11.992;2023-05-10T06:20:36;7.07;;;6.37;;
1320;SDS011;653;51.480;11.992;2023-05-10T06:23:02;7.50;;;6.40;;
1320;SDS011;653;51.480;11.992;2023-05-10T06:25:28;10.20;;;7.47;;
1320;SDS011;653;51.480;11.992;2023-05-10T06:27:57;19.70;;;10.30;;
1320;SDS011;653;51.480;11.992;2023-05-10T06:30:24;15.47;;;6.03;;
1320;SDS011;653;51.480;11.992;2023-05-10T06:32:53;19.80;;;10.17;;
1320;SDS011;653;51.480;11.992;2023-05-10T06:35:23;11.50;;;7.00;;
1320;SDS011;653;51.480;11.992;2023-05-10T06:37:54;16.43;;;7.30;;
1320;SDS011;653;51.480;11.992;2023-05-10T06:40:21;8.97;;;6.00;;
1320;SDS011;653;51.480;11.992;2023-05-10T06:42:47;10.47;;;6.00;;
1320;SDS011;653;51.480;11.992;2023-05-10T06:45:14;7.30;;;5.37;;
1320;SDS011;653;51.480;11.992;2023-05-10T06:47:40;8.87;;;6.07;;
1320;SDS011;653;51.480;11.992;2023-05-10T06:50:08;6.43;;;5.63;;
1320;SDS011;653;51.480;11.992;2023-05-10T06:52:37;9.63;;;5.93;;
1320;SDS011;653;51.480;11.992;2023-05-10T06:55:03;13.83;;;5.70;;
1320;SDS011;653;51.480;11.992;2023-05-10T06:57:30;8.37;;;5.90;;
1320;SDS011;653;51.480;11.992;2023-05-10T06:59:55;5.63;;;5.07;;
1320;SDS011;653;51.480;11.992;2023-05-10T07:02:21;7.00;;;6.30;;
1320;SDS011;653;51.480;11.992;2023-05-10T07:04:49;9.80;;;6.10;;
1320;SDS011;653;51.480;11.992;2023-05-10T07:07:17;7.23;;;5.63;;
1320;SDS011;653;51.480;11.992;2023-05-10T07:09:44;7.47;;;6.70;;
1320;SDS011;653;51.480;11.992;2023-05-10T07:12:11;8.63;;;5.87;;
1320;SDS011;653;51.480;11.992;2023-05-10T07:14:38;9.67;;;6.40;;
1320;SDS011;653;51.480;11.992;2023-05-10T07:17:09;7.43;;;6.00;;
1320;SDS011;653;51.480;11.992;2023-05-10T07:19:35;7.60;;;5.83;;
1320;SDS011;653;51.480;11.992;2023-05-10T07:22:00;9.33;;;5.53;;
1320;SDS011;653;51.480;11.992;2023-05-10T07:24:31;8.00;;;6.13;;
1320;SDS011;653;51.480;11.992;2023-05-10T07:26:57;6.60;;;5.97;;
1320;SDS011;653;51.480;11.992;2023-05-10T07:29:22;10.07;;;6.00;;
1320;SDS011;653;51.480;11.992;2023-05-10T07:31:50;10.83;;;6.00;;
1320;SDS011;653;51.480;11.992;2023-05-10T07:34:17;7.30;;;5.83;;
1320;SDS011;653;51.480;11.992;2023-05-10T07:36:43;9.60;;;6.27;;
1320;SDS011;653;51.480;11.992;2023-05-10T07:39:13;11.10;;;6.60;;
1320;SDS011;653;51.480;11.992;2023-05-10T07:41:39;7.17;;;6.40;;
1320;SDS011;653;51.480;11.992;2023-05-10T07:44:05;6.80;;;5.40;;
1320;SDS011;653;51.480;11.992;2023-05-10T07:46:32;6.90;;;5.90;;
1320;SDS011;653;51.480;11.992;2023-05-10T07:48:59;12.20;;;6.60;;
1320;SDS011;653;51.480;11.992;2023-05-10T07:51:24;6.30;;;5.80;;
1320;SDS011;653;51.480;11.992;2023-05-10T07:53:51;7.20;;;6.10;;
1320;SDS011;653;51.480;11.992;2023-05-10T07:56:23;7.03;;;6.33;;
1320;SDS011;653;51.480;11.992;2023-05-10T07:58:52;5.97;;;5.47;;
1320;SDS011;653;51.480;11.992;2023-05-10T08:01:20;9.10;;;6.50;;
1320;SDS011;653;51.480;11.992;2023-05-10T08:03:47;8.70;;;6.27;;
1320;SDS011;653;51.480;11.992;2023-05-10T08:06:14;12.93;;;6.63;;
1320;SDS011;653;51.480;11.992;2023-05-10T08:08:41;6.87;;;6.17;;
1320;SDS011;653;51.480;11.992;2023-05-10T08:11:09;6.80;;;6.10;;
1320;SDS011;653;51.480;11.992;2023-05-10T08:13:36;12.37;;;7.13;;
1320;SDS011;653;51.480;11.992;2023-05-10T08:16:03;6.97;;;6.33;;
1320;SDS011;653;51.480;11.992;2023-05-10T08:18:31;6.87;;;6.20;;
1320;SDS011;653;51.480;11.992;2023-05-10T08:20:57;7.83;;;7.13;;
1320;SDS011;653;51.480;11.992;2023-05-10T08:23:26;8.80;;;6.90;;
1320;SDS011;653;51.480;11.992;2023-05-10T08:25:52;14.07;;;6.97;;
1320;SDS011;653;51.480;11.992;2023-05-10T08:28:19;7.70;;;6.90;;
1320;SDS011;653;51.480;11.992;2023-05-10T08:30:44;8.57;;;7.77;;
1320;SDS011;653;51.480;11.992;2023-05-10T08:33:11;13.33;;;7.43;;
1320;SDS011;653;51.480;11.992;2023-05-10T08:35:37;8.37;;;7.57;;
1320;SDS011;653;51.480;11.992;2023-05-10T08:38:06;9.50;;;7.60;;
1320;SDS011;653;51.480;11.992;2023-05-10T08:40:33;16.77;;;7.93;;
1320;SDS011;653;51.480;11.992;2023-05-10T08:43:08;9.07;;;7.73;;
1320;SDS011;653;51.480;11.992;2023-05-10T08:45:38;12.73;;;9.10;;
1320;SDS011;653;51.480;11.992;2023-05-10T08:48:05;12.83;;;9.10;;
1320;SDS011;653;51.480;11.992;2023-05-10T08:50:35;11.60;;;7.87;;
1320;SDS011;653;51.480;11.992;2023-05-10T08:53:05;9.70;;;8.77;;
1320;SDS011;653;51.480;11.992;2023-05-10T08:55:33;9.47;;;8.20;;
1320;SDS011;653;51.480;11.992;2023-05-10T08:58:00;9.50;;;8.60;;
1320;SDS011;653;51.480;11.992;2023-05-10T09:00:27;10.03;;;7.47;;
1320;SDS011;653;51.480;11.992;2023-05-10T09:02:54;9.73;;;8.73;;
1320;SDS011;653;51.480;11.992;2023-05-10T09:05:20;11.90;;;9.77;;
1320;SDS011;653;51.480;11.992;2023-05-10T09:07:46;10.43;;;9.40;;
1320;SDS011;653;51.480;11.992;2023-05-10T09:10:15;17.13;;;9.53;;
1320;SDS011;653;51.480;11.992;2023-05-10T09:12:44;10.73;;;9.57;;
1320;SDS011;653;51.480;11.992;2023-05-10T09:15:13;8.60;;;7.70;;
1320;SDS011;653;51.480;11.992;2023-05-10T09:17:42;9.00;;;8.07;;
1320;SDS011;653;51.480;11.992;2023-05-10T09:20:09;9.50;;;8.60;;
1320;SDS011;653;51.480;11.992;2023-05-10T09:22:39;10.93;;;8.80;;
1320;SDS011;653;51.480;11.992;2023-05-10T09:25:12;9.00;;;8.20;;
1320;SDS011;653;51.480;11.992;2023-05-10T09:27:55;9.73;;;8.73;;
1320;SDS011;653;51.480;11.992;2023-05-10T09:30:28;9.97;;;8.80;;
1320;SDS011;653;51.480;11.992;2023-05-10T09:32:57;11.40;;;8.07;;
1320;SDS011;653;51.480;11.992;2023-05-10T09:35:24;15.90;;;9.07;;
1320;SDS011;653;51.480;11.992;2023-05-10T09:37:52;11.50;;;8.30;;
1320;SDS011;653;51.480;11.992;2023-05-10T09:40:24;14.27;;;8.83;;
1320;SDS011;653;51.480;11.992;2023-05-10T09:43:08;11.77;;;9.30;;
1320;SDS011;653;51.480;11.992;2023-05-10T09:45:37;12.30;;;8.90;;
1320;SDS011;653;51.480;11.992;2023-05-10T09:48:03;10.07;;;9.17;;
1320;SDS011;653;51.480;11.992;2023-05-10T09:50:30;10.00;;;9.00;;
1320;SDS011;653;51.480;11.992;2023-05-10T09:52:57;10.40;;;9.20;;
1320;SDS011;653;51.480;11.992;2023-05-10T09:55:25;9.90;;;8.90;;
1320;SDS011;653;51.480;11.992;2023-05-10T09:58:13;9.43;;;8.43;;
1320;SDS011;653;51.480;11.992;2023-05-10T10:00:40;10.17;;;8.23;;
1320;SDS011;653;51.480;11.992;2023-05-10T10:03:19;10.10;;;8.93;;
1320;SDS011;653;51.480;11.992;2023-05-10T10:05:46;9.10;;;8.20;;
1320;SDS011;653;51.480;11.992;2023-05-10T10:08:12;10.30;;;9.30;;
1320;SDS011;653;51.480;11.992;2023-05-10T10:10:40;10.97;;;9.87;;
1320;SDS011;653;51.480;11.992;2023-05-10T10:13:11;10.27;;;9.27;;
1320;SDS011;653;51.480;11.992;2023-05-10T10:15:38;16.27;;;10.30;;
1320;SDS011;653;51.480;11.992;2023-05-10T10:18:04;11.47;;;10.20;;
1320;SDS011;653;51.480;11.992;2023-05-10T10:20:31;14.13;;;10.43;;
1320;SDS011;653;51.480;11.992;2023-05-10T10:22:56;11.10;;;10.10;;
1320;SDS011;653;51.480;11.992;2023-05-10T10:25:23;11.50;;;10.40;;
1320;SDS011;653;51.480;11.992;2023-05-10T10:28:03;12.57;;;11.30;;
1320;SDS011;653;51.480;11.992;2023-05-10T10:30:42;11.87;;;10.77;;
1320;SDS011;653;51.480;11.992;2023-05-10T10:36:14;11.97;;;10.77;;
1320;SDS011;653;51.480;11.992;2023-05-10T10:41:36;12.30;;;11.00;;
1320;SDS011;653;51.480;11.992;2023-05-10T10:46:59;10.20;;;8.70;;
1320;SDS011;653;51.480;11.992;2023-05-10T10:50:06;10.30;;;9.30;;
1320;SDS011;653;51.480;11.992;2023-05-10T10:52:52;11.00;;;9.90;;
1320;SDS011;653;51.480;11.992;2023-05-10T10:55:19;13.97;;;11.40;;
1320;SDS011;653;51.480;11.992;2023-05-10T10:57:57;12.30;;;10.90;;
1320;SDS011;653;51.480;11.992;2023-05-10T11:00:32;12.33;;;10.40;;
1320;SDS011;653;51.480;11.992;2023-05-10T11:05:46;6.20;;;4.50;;
1320;SDS011;653;51.480;11.992;2023-05-10T11:13:38;4.00;;;2.80;;
1320;SDS011;653;51.480;11.992;2023-05-10T11:16:23;2.80;;;2.60;;
1320;SDS011;653;51.480;11.992;2023-05-10T11:24:49;5.20;;;2.63;;
1320;SDS011;653;51.480;11.992;2023-05-10T11:27:22;2.47;;;2.27;;
1320;SDS011;653;51.480;11.992;2023-05-10T11:29:51;2.43;;;2.23;;
1320;SDS011;653;51.480;11.992;2023-05-10T11:32:16;2.67;;;2.10;;
1320;SDS011;653;51.480;11.992;2023-05-10T11:34:42;3.00;;;1.80;;
1320;SDS011;653;51.480;11.992;2023-05-10T11:37:13;2.93;;;2.03;;
1320;SDS011;653;51.480;11.992;2023-05-10T11:39:45;2.67;;;2.37;;
1320;SDS011;653;51.480;11.992;2023-05-10T11:42:17;3.90;;;3.20;;
1320;SDS011;653;51.480;11.992;2023-05-10T11:44:45;2.57;;;2.30;;
1320;SDS011;653;51.480;11.992;2023-05-10T11:47:11;2.63;;;2.03;;
1320;SDS011;653;51.480;11.992;2023-05-10T11:49:42;3.33;;;2.20;;
1320;SDS011;653;51.480;11.992;2023-05-10T11:52:13;1.90;;;1.70;;
1320;SDS011;653;51.480;11.992;2023-05-10T11:54:59;2.30;;;2.10;;
1320;SDS011;653;51.480;11.992;2023-05-10T11:57:26;3.13;;;1.90;;
1320;SDS011;653;51.480;11.992;2023-05-10T11:59:53;2.10;;;1.83;;
1320;SDS011;653;51.480;11.992;2023-05-10T12:02:20;2.20;;;2.00;;
1320;SDS011;653;51.480;11.992;2023-05-10T12:04:50;2.20;;;1.87;;
1320;SDS011;653;51.480;11.992;2023-05-10T12:07:17;2.50;;;1.67;;
1320;SDS011;653;51.480;11.992;2023-05-10T12:10:07;3.17;;;2.03;;
1320;SDS011;653;51.480;11.992;2023-05-10T12:12:40;2.07;;;1.80;;
1320;SDS011;653;51.480;11.992;2023-05-10T12:15:23;2.30;;;1.63;;
1320;SDS011;653;51.480;11.992;2023-05-10T12:17:51;2.00;;;1.73;;
1320;SDS011;653;51.480;11.992;2023-05-10T12:20:20;2.20;;;1.63;;
1320;SDS011;653;51.480;11.992;2023-05-10T12:23:03;2.07;;;1.43;;
1320;SDS011;653;51.480;11.992;2023-05-10T12:25:33;2.43;;;1.80;;
1320;SDS011;653;51.480;11.992;2023-05-10T12:28:04;2.60;;;2.23;;
1320;SDS011;653;51.480;11.992;2023-05-10T12:30:33;3.77;;;2.93;;
1320;SDS011;653;51.480;11.992;2023-05-10T12:33:00;8.27;;;7.10;;
1320;SDS011;653;51.480;11.992;2023-05-10T12:35:51;12.17;;;8.80;;
1320;SDS011;653;51.480;11.992;2023-05-10T12:38:46;9.43;;;8.50;;
1320;SDS011;653;51.480;11.992;2023-05-10T12:41:16;11.67;;;9.30;;
1320;SDS011;653;51.480;11.992;2023-05-10T12:43:44;9.93;;;8.80;;
1320;SDS011;653;51.480;11.992;2023-05-10T12:46:16;11.07;;;9.77;;
1320;SDS011;653;51.480;11.992;2023-05-10T12:49:06;9.97;;;8.97;;
1320;SDS011;653;51.480;11.992;2023-05-10T12:51:43;11.93;;;9.37;;
1320;SDS011;653;51.480;11.992;2023-05-10T12:54:10;11.93;;;10.73;;
1320;SDS011;653;51.480;11.992;2023-05-10T12:56:42;11.07;;;9.90;;
1320;SDS011;653;51.480;11.992;2023-05-10T12:59:12;12.30;;;9.97;;
1320;SDS011;653;51.480;11.992;2023-05-10T13:02:01;13.03;;;11.73;;
1320;SDS011;653;51.480;11.992;2023-05-10T13:04:27;13.53;;;11.33;;
1320;SDS011;653;51.480;11.992;2023-05-10T13:06:53;12.23;;;11.00;;
1320;SDS011;653;51.480;11.992;2023-05-10T13:09:25;10.60;;;9.57;;
1320;SDS011;653;51.480;11.992;2023-05-10T13:11:52;8.53;;;7.63;;
1320;SDS011;653;51.480;11.992;2023-05-10T13:14:23;8.67;;;7.87;;
1320;SDS011;653;51.480;11.992;2023-05-10T13:16:51;8.63;;;7.83;;
1320;SDS011;653;51.480;11.992;2023-05-10T13:19:17;11.80;;;7.00;;
1320;SDS011;653;51.480;11.992;2023-05-10T13:21:43;6.40;;;5.80;;
1320;SDS011;653;51.480;11.992;2023-05-10T13:24:10;6.37;;;4.80;;
1320;SDS011;653;51.480;11.992;2023-05-10T13:26:40;4.77;;;4.20;;
1320;SDS011;653;51.480;11.992;2023-05-10T13:29:06;8.30;;;4.40;;
1320;SDS011;653;51.480;11.992;2023-05-10T13:31:33;3.90;;;3.47;;
1320;SDS011;653;51.480;11.992;2023-05-10T13:34:03;5.93;;;5.33;;
1320;SDS011;653;51.480;11.992;2023-05-10T13:36:31;4.80;;;4.40;;
1320;SDS011;653;51.480;11.992;2023-05-10T13:38:58;5.07;;;4.43;;
1320;SDS011;653;51.480;11.992;2023-05-10T13:41:23;5.73;;;5.20;;
1320;SDS011;653;51.480;11.992;2023-05-10T13:43:53;8.27;;;5.43;;
1320;SDS011;653;51.480;11.992;2023-05-10T13:46:19;5.33;;;4.80;;
1320;SDS011;653;51.480;11.992;2023-05-10T13:48:46;4.63;;;4.20;;
1320;SDS011;653;51.480;11.992;2023-05-10T13:51:14;6.50;;;4.23;;
1320;SDS011;653;51.480;11.992;2023-05-10T13:53:39;5.77;;;5.27;;
1320;SDS011;653;51.480;11.992;2023-05-10T13:56:07;5.37;;;4.93;;
1320;SDS011;653;51.480;11.992;2023-05-10T13:58:38;5.87;;;5.37;;
1320;SDS011;653;51.480;11.992;2023-05-10T14:01:06;6.00;;;5.50;;
1320;SDS011;653;51.480;11.992;2023-05-10T14:03:34;6.10;;;5.53;;
1320;SDS011;653;51.480;11.992;2023-05-10T14:06:00;6.20;;;5.60;;
1320;SDS011;653;51.480;11.992;2023-05-10T14:08:26;6.17;;;5.67;;
1320;SDS011;653;51.480;11.992;2023-05-10T14:10:52;5.40;;;4.90;;
1320;SDS011;653;51.480;11.992;2023-05-10T14:13:17;6.80;;;4.97;;
1320;SDS011;653;51.480;11.992;2023-05-10T14:15:44;5.17;;;4.67;;
1320;SDS011;653;51.480;11.992;2023-05-10T14:18:13;6.40;;;5.80;;
1320;SDS011;653;51.480;11.992;2023-05-10T14:20:39;5.33;;;4.77;;
1320;SDS011;653;51.480;11.992;2023-05-10T14:23:07;4.80;;;4.37;;
1320;SDS011;653;51.480;11.992;2023-05-10T14:25:32;5.70;;;5.20;;
1320;SDS011;653;51.480;11.992;2023-05-10T14:28:01;5.10;;;4.60;;
1320;SDS011;653;51.480;11.992;2023-05-10T14:30:27;4.73;;;4.33;;
1320;SDS011;653;51.480;11.992;2023-05-10T14:32:54;13.50;;;5.63;;
1320;SDS011;653;51.480;11.992;2023-05-10T14:35:20;5.00;;;4.47;;
1320;SDS011;653;51.480;11.992;2023-05-10T14:37:47;4.73;;;4.33;;
1320;SDS011;653;51.480;11.992;2023-05-10T14:40:14;4.40;;;4.00;;
1320;SDS011;653;51.480;11.992;2023-05-10T14:42:41;4.70;;;4.27;;
1320;SDS011;653;51.480;11.992;2023-05-10T14:45:07;3.63;;;3.10;;
1320;SDS011;653;51.480;11.992;2023-05-10T14:47:33;4.40;;;4.00;;
1320;SDS011;653;51.480;11.992;2023-05-10T14:49:59;4.03;;;3.63;;
1320;SDS011;653;51.480;11.992;2023-05-10T14:52:26;3.83;;;3.43;;
1320;SDS011;653;51.480;11.992;2023-05-10T14:54:52;3.53;;;3.23;;
1320;SDS011;653;51.480;11.992;2023-05-10T14:57:20;4.67;;;4.17;;
1320;SDS011;653;51.480;11.992;2023-05-10T14:59:45;7.67;;;4.63;;
1320;SDS011;653;51.480;11.992;2023-05-10T15:02:13;3.83;;;3.03;;
1320;SDS011;653;51.480;11.992;2023-05-10T15:04:39;4.03;;;3.63;;
1320;SDS011;653;51.480;11.992;2023-05-10T15:07:05;4.57;;;3.33;;
1320;SDS011;653;51.480;11.992;2023-05-10T15:09:33;3.87;;;3.47;;
1320;SDS011;653;51.480;11.992;2023-05-10T15:12:00;4.40;;;4.00;;
1320;SDS011;653;51.480;11.992;2023-05-10T15:14:25;4.30;;;4.00;;
1320;SDS011;653;51.480;11.992;2023-05-10T15:16:52;5.57;;;4.97;;
1320;SDS011;653;51.480;11.992;2023-05-10T15:19:19;5.20;;;3.93;;
1320;SDS011;653;51.480;11.992;2023-05-10T15:21:46;5.67;;;4.90;;
1320;SDS011;653;51.480;11.992;2023-05-10T15:24:13;4.73;;;4.33;;
1320;SDS011;653;51.480;11.992;2023-05-10T15:26:40;3.43;;;3.10;;
1320;SDS011;653;51.480;11.992;2023-05-10T15:29:06;3.97;;;3.63;;
1320;SDS011;653;51.480;11.992;2023-05-10T15:31:35;4.30;;;3.13;;
1320;SDS011;653;51.480;11.992;2023-05-10T15:34:01;4.03;;;3.07;;
1320;SDS011;653;51.480;11.992;2023-05-10T15:36:31;2.57;;;2.37;;
1320;SDS011;653;51.480;11.992;2023-05-10T15:38:58;3.10;;;2.30;;
1320;SDS011;653;51.480;11.992;2023-05-10T15:41:25;2.93;;;2.70;;
1320;SDS011;653;51.480;11.992;2023-05-10T15:43:51;4.10;;;2.57;;
1320;SDS011;653;51.480;11.992;2023-05-10T15:46:18;4.10;;;2.20;;
1320;SDS011;653;51.480;11.992;2023-05-10T15:48:43;3.37;;;2.80;;
1320;SDS011;653;51.480;11.992;2023-05-10T15:51:12;2.80;;;2.50;;
1320;SDS011;653;51.480;11.992;2023-05-10T15:53:38;2.63;;;2.40;;
1320;SDS011;653;51.480;11.992;2023-05-10T15:56:07;3.20;;;2.90;;
1320;SDS011;653;51.480;11.992;2023-05-10T15:58:34;4.73;;;4.40;;
1320;SDS011;653;51.480;11.992;2023-05-10T16:01:01;5.00;;;3.67;;
1320;SDS011;653;51.480;11.992;2023-05-10T16:03:27;4.37;;;3.97;;
1320;SDS011;653;51.480;11.992;2023-05-10T16:05:54;4.13;;;3.57;;
1320;SDS011;653;51.480;11.992;2023-05-10T16:08:19;4.53;;;4.13;;